sensor_id;sensor_type;location;lat;lon;timestamp;temperature;humidity
30467;DHT22;17258;52.560;13.046;2023-04-15T00:05:24;13.90;59.70
30467;DHT22;17258;52.560;13.046;2023-04-15T00:15:24;13.90;59.80
30467;DHT22;17258;52.560;13.046;2023-04-15T00:25:25;14.00;59.80
30467;DHT22;17258;52.560;13.046;2023-04-15T00:35:26;14.00;59.80
30467;DHT22;17258;52.560;13.046;2023-04-15T00:45:27;14.00;59.80
30467;DHT22;17258;52.560;13.046;2023-04-15T00:55:27;14.10;59.90
30467;DHT22;17258;52.560;13.046;2023-04-15T01:05:29;14.10;59.80
30467;DHT22;17258;52.560;13.046;2023-04-15T01:15:30;14.20;59.90
30467;DHT22;17258;52.560;13.046;2023-04-15T01:25:32;14.20;59.90
30467;DHT22;17258;52.560;13.046;2023-04-15T01:35:33;14.10;59.90
30467;DHT22;17258;52.560;13.046;2023-04-15T01:45:34;14.10;59.90
30467;DHT22;17258;52.560;13.046;2023-04-15T01:55:34;14.20;60.00
30467;DHT22;17258;52.560;13.046;2023-04-15T02:05:35;14.10;59.90
30467;DHT22;17258;52.560;13.046;2023-04-15T02:15:36;14.20;59.90
30467;DHT22;17258;52.560;13.046;2023-04-15T02:25:37;14.20;59.90
30467;DHT22;17258;52.560;13.046;2023-04-15T02:35:38;14.20;59.90
30467;DHT22;17258;52.560;13.046;2023-04-15T02:45:42;14.10;59.80
30467;DHT22;17258;52.560;13.046;2023-04-15T02:55:43;14.10;59.90
30467;DHT22;17258;52.560;13.046;2023-04-15T03:05:43;14.20;60.00
30467;DHT22;17258;52.560;13.046;2023-04-15T03:15:46;14.10;60.00
30467;DHT22;17258;52.560;13.046;2023-04-15T03:25:46;14.20;60.10
30467;DHT22;17258;52.560;13.046;2023-04-15T03:35:47;14.10;60.00
30467;DHT22;17258;52.560;13.046;2023-04-15T03:45:48;14.10;60.00
30467;DHT22;17258;52.560;13.046;2023-04-15T03:55:48;14.10;60.10
30467;DHT22;17258;52.560;13.046;2023-04-15T04:05:50;14.10;60.10
30467;DHT22;17258;52.560;13.046;2023-04-15T04:15:50;14.10;60.90
30467;DHT22;17258;52.560;13.046;2023-04-15T04:25:51;14.10;60.20
30467;DHT22;17258;52.560;13.046;2023-04-15T04:35:52;14.10;60.20
30467;DHT22;17258;52.560;13.046;2023-04-15T04:45:53;14.20;60.40
30467;DHT22;17258;52.560;13.046;2023-04-15T04:55:53;14.10;60.40
30467;DHT22;17258;52.560;13.046;2023-04-15T05:05:54;14.10;60.40
30467;DHT22;17258;52.560;13.046;2023-04-15T05:15:55;14.20;60.50
30467;DHT22;17258;52.560;13.046;2023-04-15T05:25:56;14.20;60.50
30467;DHT22;17258;52.560;13.046;2023-04-15T05:35:56;14.30;60.60
30467;DHT22;17258;52.560;13.046;2023-04-15T05:45:57;14.30;60.60
30467;DHT22;17258;52.560;13.046;2023-04-15T05:55:58;14.40;60.70
30467;DHT22;17258;52.560;13.046;2023-04-15T06:05:58;14.40;60.70
30467;DHT22;17258;52.560;13.046;2023-04-15T06:16:00;14.50;60.80
30467;DHT22;17258;52.560;13.046;2023-04-15T06:26:01;14.60;60.90
30467;DHT22;17258;52.560;13.046;2023-04-15T06:36:02;14.80;61.50
30467;DHT22;17258;52.560;13.046;2023-04-15T06:46:02;14.90;61.30
30467;DHT22;17258;52.560;13.046;2023-04-15T06:56:03;15.00;61.40
30467;DHT22;17258;52.560;13.046;2023-04-15T07:06:04;15.20;61.50
30467;DHT22;17258;52.560;13.046;2023-04-15T07:16:06;15.40;61.60
30467;DHT22;17258;52.560;13.046;2023-04-15T07:26:07;15.60;61.70
30467;DHT22;17258;52.560;13.046;2023-04-15T07:36:08;15.90;61.80
30467;DHT22;17258;52.560;13.046;2023-04-15T07:46:10;16.10;61.60
30467;DHT22;17258;52.560;13.046;2023-04-15T07:56:10;16.30;61.30
30467;DHT22;17258;52.560;13.046;2023-04-15T08:06:11;16.40;61.90
30467;DHT22;17258;52.560;13.046;2023-04-15T08:16:22;16.60;60.90
30467;DHT22;17258;52.560;13.046;2023-04-15T08:26:24;16.60;60.80
30467;DHT22;17258;52.560;13.046;2023-04-15T08:36:24;16.60;60.40
30467;DHT22;17258;52.560;13.046;2023-04-15T08:46:26;16.60;60.40
30467;DHT22;17258;52.560;13.046;2023-04-15T08:56:30;16.70;60.40
30467;DHT22;17258;52.560;13.046;2023-04-15T09:06:32;16.70;60.40
30467;DHT22;17258;52.560;13.046;2023-04-15T09:16:55;16.70;60.30
30467;DHT22;17258;52.560;13.046;2023-04-15T09:26:57;16.70;60.70
30467;DHT22;17258;52.560;13.046;2023-04-15T09:36:58;16.80;60.30
30467;DHT22;17258;52.560;13.046;2023-04-15T09:46:58;16.80;60.20
30467;DHT22;17258;52.560;13.046;2023-04-15T09:57:04;16.90;60.40
30467;DHT22;17258;52.560;13.046;2023-04-15T10:07:13;16.90;60.40
30467;DHT22;17258;52.560;13.046;2023-04-15T10:17:17;17.00;60.20
30467;DHT22;17258;52.560;13.046;2023-04-15T10:27:19;17.00;60.10
30467;DHT22;17258;52.560;13.046;2023-04-15T10:37:21;17.10;60.00
30467;DHT22;17258;52.560;13.046;2023-04-15T10:47:24;17.00;60.00
30467;DHT22;17258;52.560;13.046;2023-04-15T10:57:34;17.00;60.10
30467;DHT22;17258;52.560;13.046;2023-04-15T11:17:50;17.00;60.50
30467;DHT22;17258;52.560;13.046;2023-04-15T11:27:53;17.10;60.60
30467;DHT22;17258;52.560;13.046;2023-04-15T11:37:55;17.10;60.50
30467;DHT22;17258;52.560;13.046;2023-04-15T11:48:05;17.10;60.60
30467;DHT22;17258;52.560;13.046;2023-04-15T11:58:11;17.10;61.00
30467;DHT22;17258;52.560;13.046;2023-04-15T12:08:24;17.10;60.70
30467;DHT22;17258;52.560;13.046;2023-04-15T12:18:25;17.20;60.80
30467;DHT22;17258;52.560;13.046;2023-04-15T12:28:29;17.20;60.70
30467;DHT22;17258;52.560;13.046;2023-04-15T12:38:30;17.20;60.80
30467;DHT22;17258;52.560;13.046;2023-04-15T12:48:31;17.20;60.70
30467;DHT22;17258;52.560;13.046;2023-04-15T12:58:32;17.20;60.80
30467;DHT22;17258;52.560;13.046;2023-04-15T13:08:33;17.20;61.00
30467;DHT22;17258;52.560;13.046;2023-04-15T13:18:33;17.20;61.20
30467;DHT22;17258;52.560;13.046;2023-04-15T13:28:34;17.20;61.30
30467;DHT22;17258;52.560;13.046;2023-04-15T13:38:35;17.30;61.10
30467;DHT22;17258;52.560;13.046;2023-04-15T13:48:36;17.30;61.10
30467;DHT22;17258;52.560;13.046;2023-04-15T13:58:37;17.40;61.20
30467;DHT22;17258;52.560;13.046;2023-04-15T14:08:37;17.40;61.00
30467;DHT22;17258;52.560;13.046;2023-04-15T14:18:39;17.40;61.00
30467;DHT22;17258;52.560;13.046;2023-04-15T14:28:39;17.30;60.90
30467;DHT22;17258;52.560;13.046;2023-04-15T14:38:40;17.20;60.90
30467;DHT22;17258;52.560;13.046;2023-04-15T14:48:41;17.20;61.00
30467;DHT22;17258;52.560;13.046;2023-04-15T14:58:42;17.10;61.00
30467;DHT22;17258;52.560;13.046;2023-04-15T15:08:43;17.10;61.00
30467;DHT22;17258;52.560;13.046;2023-04-15T15:18:43;17.00;61.10
30467;DHT22;17258;52.560;13.046;2023-04-15T15:28:44;16.90;61.10
30467;DHT22;17258;52.560;13.046;2023-04-15T15:38:45;16.80;61.20
30467;DHT22;17258;52.560;13.046;2023-04-15T15:48:46;16.80;61.40
30467;DHT22;17258;52.560;13.046;2023-04-15T15:58:46;16.80;61.50
30467;DHT22;17258;52.560;13.046;2023-04-15T16:08:47;16.70;61.50
30467;DHT22;17258;52.560;13.046;2023-04-15T16:18:47;16.70;61.60
30467;DHT22;17258;52.560;13.046;2023-04-15T16:28:48;16.70;61.80
30467;DHT22;17258;52.560;13.046;2023-04-15T16:38:49;16.70;61.70
30467;DHT22;17258;52.560;13.046;2023-04-15T16:48:50;16.60;61.70
30467;DHT22;17258;52.560;13.046;2023-04-15T16:58:50;16.60;61.70
30467;DHT22;17258;52.560;13.046;2023-04-15T17:08:51;16.50;61.60
30467;DHT22;17258;52.560;13.046;2023-04-15T17:18:52;16.50;61.70
30467;DHT22;17258;52.560;13.046;2023-04-15T17:28:52;16.50;61.80
30467;DHT22;17258;52.560;13.046;2023-04-15T17:38:54;16.40;61.80
30467;DHT22;17258;52.560;13.046;2023-04-15T17:48:55;16.30;61.80
30467;DHT22;17258;52.560;13.046;2023-04-15T17:58:56;16.30;61.90
30467;DHT22;17258;52.560;13.046;2023-04-15T18:08:58;16.30;62.00
30467;DHT22;17258;52.560;13.046;2023-04-15T18:18:58;16.30;62.10
30467;DHT22;17258;52.560;13.046;2023-04-15T18:28:59;16.20;62.10
30467;DHT22;17258;52.560;13.046;2023-04-15T18:39:00;16.20;62.20
30467;DHT22;17258;52.560;13.046;2023-04-15T18:49:00;16.20;62.20
30467;DHT22;17258;52.560;13.046;2023-04-15T18:59:01;16.20;62.30
30467;DHT22;17258;52.560;13.046;2023-04-15T19:09:02;16.10;62.20
30467;DHT22;17258;52.560;13.046;2023-04-15T19:19:02;16.10;62.30
30467;DHT22;17258;52.560;13.046;2023-04-15T19:29:03;16.10;62.40
30467;DHT22;17258;52.560;13.046;2023-04-15T19:39:04;16.10;62.50
30467;DHT22;17258;52.560;13.046;2023-04-15T19:49:05;16.10;62.50
30467;DHT22;17258;52.560;13.046;2023-04-15T19:59:06;16.00;62.50
30467;DHT22;17258;52.560;13.046;2023-04-15T20:09:06;16.00;62.50
30467;DHT22;17258;52.560;13.046;2023-04-15T20:19:07;16.00;62.60
30467;DHT22;17258;52.560;13.046;2023-04-15T20:29:08;16.00;62.60
30467;DHT22;17258;52.560;13.046;2023-04-15T20:39:09;16.00;62.60
30467;DHT22;17258;52.560;13.046;2023-04-15T20:49:09;16.00;62.70
30467;DHT22;17258;52.560;13.046;2023-04-15T20:59:10;15.90;62.60
30467;DHT22;17258;52.560;13.046;2023-04-15T21:09:11;16.00;62.80
30467;DHT22;17258;52.560;13.046;2023-04-15T21:19:11;15.90;62.70
30467;DHT22;17258;52.560;13.046;2023-04-15T21:29:12;15.90;62.70
30467;DHT22;17258;52.560;13.046;2023-04-15T21:39:13;15.90;62.70
30467;DHT22;17258;52.560;13.046;2023-04-15T21:49:13;15.90;62.80
30467;DHT22;17258;52.560;13.046;2023-04-15T21:59:14;15.90;62.80
30467;DHT22;17258;52.560;13.046;2023-04-15T22:09:14;15.90;62.80
30467;DHT22;17258;52.560;13.046;2023-04-15T22:19:16;15.90;62.90
30467;DHT22;17258;52.560;13.046;2023-04-15T22:29:16;15.90;62.90
30467;DHT22;17258;52.560;13.046;2023-04-15T22:39:18;15.90;62.90
30467;DHT22;17258;52.560;13.046;2023-04-15T22:49:18;15.90;62.90
30467;DHT22;17258;52.560;13.046;2023-04-15T22:59:19;15.90;63.00
30467;DHT22;17258;52.560;13.046;2023-04-15T23:09:20;15.90;63.00
30467;DHT22;17258;52.560;13.046;2023-04-15T23:19:22;15.90;63.00
30467;DHT22;17258;52.560;13.046;2023-04-15T23:29:22;15.90;63.00
30467;DHT22;17258;52.560;13.046;2023-04-15T23:39:23;15.80;63.00
30467;DHT22;17258;52.560;13.046;2023-04-15T23:49:24;15.80;63.00
30467;DHT22;17258;52.560;13.046;2023-04-15T23:59:24;15.70;62.90
